sensor_id;sensor_type;location;lat;lon;timestamp;temperature;humidity
30288;DHT22;17103;48.316;11.558;2022-12-10T00:01:11;9.80;47.50
30288;DHT22;17103;48.316;11.558;2022-12-10T00:03:38;9.30;46.80
30288;DHT22;17103;48.316;11.558;2022-12-10T00:06:09;9.30;46.30
30288;DHT22;17103;48.316;11.558;2022-12-10T00:08:37;9.30;46.30
30288;DHT22;17103;48.316;11.558;2022-12-10T00:11:04;9.30;46.10
30288;DHT22;17103;48.316;11.558;2022-12-10T00:13:32;9.20;45.80
30288;DHT22;17103;48.316;11.558;2022-12-10T00:16:02;9.20;46.00
30288;DHT22;17103;48.316;11.558;2022-12-10T00:18:32;9.20;46.30
30288;DHT22;17103;48.316;11.558;2022-12-10T00:21:05;9.10;46.50
30288;DHT22;17103;48.316;11.558;2022-12-10T00:23:31;9.70;47.60
30288;DHT22;17103;48.316;11.558;2022-12-10T00:26:11;9.10;46.70
30288;DHT22;17103;48.316;11.558;2022-12-10T00:28:38;8.70;46.40
30288;DHT22;17103;48.316;11.558;2022-12-10T00:31:06;9.90;47.40
30288;DHT22;17103;48.316;11.558;2022-12-10T00:33:36;9.10;46.80
30288;DHT22;17103;48.316;11.558;2022-12-10T00:36:09;8.10;46.20
30288;DHT22;17103;48.316;11.558;2022-12-10T00:38:39;9.00;46.70
30288;DHT22;17103;48.316;11.558;2022-12-10T00:41:18;8.80;46.50
30288;DHT22;17103;48.316;11.558;2022-12-10T00:43:49;9.00;46.70
30288;DHT22;17103;48.316;11.558;2022-12-10T00:46:27;9.20;47.20
30288;DHT22;17103;48.316;11.558;2022-12-10T00:48:57;9.20;46.80
30288;DHT22;17103;48.316;11.558;2022-12-10T00:51:25;9.80;47.10
30288;DHT22;17103;48.316;11.558;2022-12-10T00:53:53;9.30;46.50
30288;DHT22;17103;48.316;11.558;2022-12-10T00:56:24;9.30;46.10
30288;DHT22;17103;48.316;11.558;2022-12-10T00:58:51;9.30;46.10
30288;DHT22;17103;48.316;11.558;2022-12-10T01:01:26;9.20;45.80
30288;DHT22;17103;48.316;11.558;2022-12-10T01:03:55;9.20;45.40
30288;DHT22;17103;48.316;11.558;2022-12-10T01:06:26;9.10;45.30
30288;DHT22;17103;48.316;11.558;2022-12-10T01:08:54;9.10;45.50
30288;DHT22;17103;48.316;11.558;2022-12-10T01:11:22;9.00;45.70
30288;DHT22;17103;48.316;11.558;2022-12-10T01:13:51;9.00;46.10
30288;DHT22;17103;48.316;11.558;2022-12-10T01:16:20;9.00;46.30
30288;DHT22;17103;48.316;11.558;2022-12-10T01:18:47;9.00;46.40
30288;DHT22;17103;48.316;11.558;2022-12-10T01:21:17;9.00;46.30
30288;DHT22;17103;48.316;11.558;2022-12-10T01:23:46;9.00;46.40
30288;DHT22;17103;48.316;11.558;2022-12-10T01:26:15;9.00;46.40
30288;DHT22;17103;48.316;11.558;2022-12-10T01:28:42;9.70;46.70
30288;DHT22;17103;48.316;11.558;2022-12-10T01:31:14;9.00;46.00
30288;DHT22;17103;48.316;11.558;2022-12-10T01:33:40;9.10;45.80
30288;DHT22;17103;48.316;11.558;2022-12-10T01:36:10;9.00;45.60
30288;DHT22;17103;48.316;11.558;2022-12-10T01:38:36;9.00;45.80
30288;DHT22;17103;48.316;11.558;2022-12-10T01:41:02;8.90;45.90
30288;DHT22;17103;48.316;11.558;2022-12-10T01:43:53;9.00;46.10
30288;DHT22;17103;48.316;11.558;2022-12-10T01:46:19;9.00;46.30
30288;DHT22;17103;48.316;11.558;2022-12-10T01:48:46;9.00;46.40
30288;DHT22;17103;48.316;11.558;2022-12-10T01:51:13;9.00;46.40
30288;DHT22;17103;48.316;11.558;2022-12-10T01:53:40;9.00;46.40
30288;DHT22;17103;48.316;11.558;2022-12-10T01:56:11;9.10;46.50
30288;DHT22;17103;48.316;11.558;2022-12-10T01:58:37;9.10;46.40
30288;DHT22;17103;48.316;11.558;2022-12-10T02:04:22;9.10;46.20
30288;DHT22;17103;48.316;11.558;2022-12-10T02:07:09;9.20;46.30
30288;DHT22;17103;48.316;11.558;2022-12-10T02:12:49;9.20;45.90
30288;DHT22;17103;48.316;11.558;2022-12-10T02:16:19;9.20;46.10
30288;DHT22;17103;48.316;11.558;2022-12-10T02:18:25;9.30;46.80
30288;DHT22;17103;48.316;11.558;2022-12-10T02:20:56;9.30;46.20
30288;DHT22;17103;48.316;11.558;2022-12-10T02:23:30;9.30;46.10
30288;DHT22;17103;48.316;11.558;2022-12-10T02:29:28;9.30;46.00
30288;DHT22;17103;48.316;11.558;2022-12-10T02:32:14;9.30;46.00
30288;DHT22;17103;48.316;11.558;2022-12-10T02:35:05;9.30;46.00
30288;DHT22;17103;48.316;11.558;2022-12-10T02:37:44;9.30;46.00
30288;DHT22;17103;48.316;11.558;2022-12-10T02:40:16;9.30;46.00
30288;DHT22;17103;48.316;11.558;2022-12-10T02:42:43;9.30;46.00
30288;DHT22;17103;48.316;11.558;2022-12-10T02:45:11;9.40;46.10
30288;DHT22;17103;48.316;11.558;2022-12-10T02:47:38;9.40;46.00
30288;DHT22;17103;48.316;11.558;2022-12-10T02:50:06;9.40;45.90
30288;DHT22;17103;48.316;11.558;2022-12-10T02:52:33;9.40;45.80
30288;DHT22;17103;48.316;11.558;2022-12-10T02:54:58;9.40;45.80
30288;DHT22;17103;48.316;11.558;2022-12-10T03:00:31;9.40;45.70
30288;DHT22;17103;48.316;11.558;2022-12-10T03:03:15;9.40;45.40
30288;DHT22;17103;48.316;11.558;2022-12-10T03:09:03;9.40;45.60
30288;DHT22;17103;48.316;11.558;2022-12-10T03:11:28;9.40;45.50
30288;DHT22;17103;48.316;11.558;2022-12-10T03:14:21;9.40;45.50
30288;DHT22;17103;48.316;11.558;2022-12-10T03:16:51;9.40;45.40
30288;DHT22;17103;48.316;11.558;2022-12-10T03:19:23;9.50;45.50
30288;DHT22;17103;48.316;11.558;2022-12-10T03:21:53;9.40;45.40
30288;DHT22;17103;48.316;11.558;2022-12-10T03:24:20;9.40;45.30
30288;DHT22;17103;48.316;11.558;2022-12-10T03:26:48;9.50;45.40
30288;DHT22;17103;48.316;11.558;2022-12-10T03:29:51;9.50;45.40
30288;DHT22;17103;48.316;11.558;2022-12-10T03:32:08;9.50;45.40
30288;DHT22;17103;48.316;11.558;2022-12-10T03:34:35;9.50;45.40
30288;DHT22;17103;48.316;11.558;2022-12-10T03:37:03;9.50;45.30
30288;DHT22;17103;48.316;11.558;2022-12-10T03:39:30;9.40;45.20
30288;DHT22;17103;48.316;11.558;2022-12-10T03:41:56;9.50;45.20
30288;DHT22;17103;48.316;11.558;2022-12-10T03:44:30;9.50;45.20
30288;DHT22;17103;48.316;11.558;2022-12-10T03:47:00;9.50;45.10
30288;DHT22;17103;48.316;11.558;2022-12-10T03:49:27;9.50;45.10
30288;DHT22;17103;48.316;11.558;2022-12-10T03:51:52;9.40;45.00
30288;DHT22;17103;48.316;11.558;2022-12-10T03:54:19;9.40;45.10
30288;DHT22;17103;48.316;11.558;2022-12-10T03:56:45;9.40;45.10
30288;DHT22;17103;48.316;11.558;2022-12-10T03:59:10;9.40;45.20
30288;DHT22;17103;48.316;11.558;2022-12-10T04:01:38;9.40;45.10
30288;DHT22;17103;48.316;11.558;2022-12-10T04:04:05;9.40;45.00
30288;DHT22;17103;48.316;11.558;2022-12-10T04:06:34;9.40;45.00
30288;DHT22;17103;48.316;11.558;2022-12-10T04:09:00;9.40;45.00
30288;DHT22;17103;48.316;11.558;2022-12-10T04:11:26;9.40;45.00
30288;DHT22;17103;48.316;11.558;2022-12-10T04:13:53;9.40;45.00
30288;DHT22;17103;48.316;11.558;2022-12-10T04:16:38;9.40;44.60
30288;DHT22;17103;48.316;11.558;2022-12-10T04:19:11;9.40;44.60
30288;DHT22;17103;48.316;11.558;2022-12-10T04:21:39;9.40;44.80
30288;DHT22;17103;48.316;11.558;2022-12-10T04:24:26;9.40;44.90
30288;DHT22;17103;48.316;11.558;2022-12-10T04:27:35;9.30;44.90
30288;DHT22;17103;48.316;11.558;2022-12-10T04:29:59;9.30;45.00
30288;DHT22;17103;48.316;11.558;2022-12-10T04:32:27;9.30;45.00
30288;DHT22;17103;48.316;11.558;2022-12-10T04:34:56;9.40;45.10
30288;DHT22;17103;48.316;11.558;2022-12-10T04:37:22;9.40;45.10
30288;DHT22;17103;48.316;11.558;2022-12-10T04:39:49;9.30;45.00
30288;DHT22;17103;48.316;11.558;2022-12-10T04:42:21;9.40;45.10
30288;DHT22;17103;48.316;11.558;2022-12-10T04:44:47;9.40;45.10
30288;DHT22;17103;48.316;11.558;2022-12-10T04:47:13;9.40;45.00
30288;DHT22;17103;48.316;11.558;2022-12-10T04:49:39;9.40;45.00
30288;DHT22;17103;48.316;11.558;2022-12-10T04:52:07;9.40;44.90
30288;DHT22;17103;48.316;11.558;2022-12-10T04:54:33;9.40;45.00
30288;DHT22;17103;48.316;11.558;2022-12-10T04:57:01;9.40;45.00
30288;DHT22;17103;48.316;11.558;2022-12-10T04:59:27;9.40;44.90
30288;DHT22;17103;48.316;11.558;2022-12-10T05:01:52;9.40;44.90
30288;DHT22;17103;48.316;11.558;2022-12-10T05:04:18;9.40;44.90
30288;DHT22;17103;48.316;11.558;2022-12-10T05:06:48;9.40;44.90
30288;DHT22;17103;48.316;11.558;2022-12-10T05:09:17;9.90;45.20
30288;DHT22;17103;48.316;11.558;2022-12-10T05:11:44;9.40;44.80
30288;DHT22;17103;48.316;11.558;2022-12-10T05:14:16;9.50;44.90
30288;DHT22;17103;48.316;11.558;2022-12-10T05:16:43;9.40;44.80
30288;DHT22;17103;48.316;11.558;2022-12-10T05:19:13;9.40;44.80
30288;DHT22;17103;48.316;11.558;2022-12-10T05:21:39;9.30;44.70
30288;DHT22;17103;48.316;11.558;2022-12-10T05:24:25;9.40;44.80
30288;DHT22;17103;48.316;11.558;2022-12-10T05:26:51;9.40;44.80
30288;DHT22;17103;48.316;11.558;2022-12-10T05:29:19;9.80;45.00
30288;DHT22;17103;48.316;11.558;2022-12-10T05:31:46;9.30;44.60
30288;DHT22;17103;48.316;11.558;2022-12-10T05:34:12;9.40;44.70
30288;DHT22;17103;48.316;11.558;2022-12-10T05:36:38;9.40;44.70
30288;DHT22;17103;48.316;11.558;2022-12-10T05:39:04;9.40;44.60
30288;DHT22;17103;48.316;11.558;2022-12-10T05:41:34;9.40;44.60
30288;DHT22;17103;48.316;11.558;2022-12-10T05:44:00;9.40;44.60
30288;DHT22;17103;48.316;11.558;2022-12-10T05:46:29;9.40;44.50
30288;DHT22;17103;48.316;11.558;2022-12-10T05:48:55;9.40;44.50
30288;DHT22;17103;48.316;11.558;2022-12-10T05:51:29;9.40;44.50
30288;DHT22;17103;48.316;11.558;2022-12-10T05:54:00;9.30;44.40
30288;DHT22;17103;48.316;11.558;2022-12-10T05:56:34;9.30;44.50
30288;DHT22;17103;48.316;11.558;2022-12-10T05:59:01;9.30;44.50
30288;DHT22;17103;48.316;11.558;2022-12-10T06:01:33;9.80;44.90
30288;DHT22;17103;48.316;11.558;2022-12-10T06:04:02;9.30;44.50
30288;DHT22;17103;48.316;11.558;2022-12-10T06:06:30;9.30;44.50
30288;DHT22;17103;48.316;11.558;2022-12-10T06:08:57;9.30;44.50
30288;DHT22;17103;48.316;11.558;2022-12-10T06:11:24;9.30;44.60
30288;DHT22;17103;48.316;11.558;2022-12-10T06:13:53;9.30;44.60
30288;DHT22;17103;48.316;11.558;2022-12-10T06:16:20;9.30;44.50
30288;DHT22;17103;48.316;11.558;2022-12-10T06:18:45;9.30;44.50
30288;DHT22;17103;48.316;11.558;2022-12-10T06:21:14;9.30;44.50
30288;DHT22;17103;48.316;11.558;2022-12-10T06:23:41;9.30;44.50
30288;DHT22;17103;48.316;11.558;2022-12-10T06:26:21;9.40;44.60
30288;DHT22;17103;48.316;11.558;2022-12-10T06:28:52;9.40;44.60
30288;DHT22;17103;48.316;11.558;2022-12-10T06:31:18;9.30;44.60
30288;DHT22;17103;48.316;11.558;2022-12-10T06:33:47;9.40;44.70
30288;DHT22;17103;48.316;11.558;2022-12-10T06:36:14;9.30;44.50
30288;DHT22;17103;48.316;11.558;2022-12-10T06:38:44;9.30;44.50
30288;DHT22;17103;48.316;11.558;2022-12-10T06:41:13;9.40;44.50
30288;DHT22;17103;48.316;11.558;2022-12-10T06:43:41;9.30;44.40
30288;DHT22;17103;48.316;11.558;2022-12-10T06:46:13;9.30;44.50
30288;DHT22;17103;48.316;11.558;2022-12-10T06:48:40;9.30;44.50
30288;DHT22;17103;48.316;11.558;2022-12-10T06:51:06;9.30;44.50
30288;DHT22;17103;48.316;11.558;2022-12-10T06:53:33;9.30;44.50
30288;DHT22;17103;48.316;11.558;2022-12-10T06:56:01;9.30;44.50
30288;DHT22;17103;48.316;11.558;2022-12-10T06:58:31;9.30;44.60
30288;DHT22;17103;48.316;11.558;2022-12-10T07:01:07;9.30;44.60
30288;DHT22;17103;48.316;11.558;2022-12-10T07:03:33;9.30;44.50
30288;DHT22;17103;48.316;11.558;2022-12-10T07:06:00;9.30;44.40
30288;DHT22;17103;48.316;11.558;2022-12-10T07:08:26;9.30;44.20
30288;DHT22;17103;48.316;11.558;2022-12-10T07:10:53;9.30;44.00
30288;DHT22;17103;48.316;11.558;2022-12-10T07:13:18;9.30;43.80
30288;DHT22;17103;48.316;11.558;2022-12-10T07:15:44;9.20;43.50
30288;DHT22;17103;48.316;11.558;2022-12-10T07:18:10;9.20;43.40
30288;DHT22;17103;48.316;11.558;2022-12-10T07:20:36;9.10;43.30
30288;DHT22;17103;48.316;11.558;2022-12-10T07:23:01;9.00;43.20
30288;DHT22;17103;48.316;11.558;2022-12-10T07:25:27;8.80;43.20
30288;DHT22;17103;48.316;11.558;2022-12-10T07:27:53;8.70;43.20
30288;DHT22;17103;48.316;11.558;2022-12-10T07:30:18;8.60;43.20
30288;DHT22;17103;48.316;11.558;2022-12-10T07:32:44;8.50;43.30
30288;DHT22;17103;48.316;11.558;2022-12-10T07:35:10;8.30;43.40
30288;DHT22;17103;48.316;11.558;2022-12-10T07:37:37;8.20;43.60
30288;DHT22;17103;48.316;11.558;2022-12-10T07:40:03;8.10;43.80
30288;DHT22;17103;48.316;11.558;2022-12-10T07:42:28;8.10;44.10
30288;DHT22;17103;48.316;11.558;2022-12-10T07:44:54;8.00;44.60
30288;DHT22;17103;48.316;11.558;2022-12-10T07:47:20;7.90;44.10
30288;DHT22;17103;48.316;11.558;2022-12-10T07:49:45;7.90;44.20
30288;DHT22;17103;48.316;11.558;2022-12-10T07:52:11;7.80;44.20
30288;DHT22;17103;48.316;11.558;2022-12-10T07:54:37;7.70;44.20
30288;DHT22;17103;48.316;11.558;2022-12-10T07:57:03;7.70;44.30
30288;DHT22;17103;48.316;11.558;2022-12-10T07:59:28;7.60;44.40
30288;DHT22;17103;48.316;11.558;2022-12-10T08:01:55;7.50;44.40
30288;DHT22;17103;48.316;11.558;2022-12-10T08:04:20;7.40;44.50
30288;DHT22;17103;48.316;11.558;2022-12-10T08:06:46;7.30;44.70
30288;DHT22;17103;48.316;11.558;2022-12-10T08:09:13;7.30;44.90
30288;DHT22;17103;48.316;11.558;2022-12-10T08:11:39;7.20;45.00
30288;DHT22;17103;48.316;11.558;2022-12-10T08:14:04;7.20;45.10
30288;DHT22;17103;48.316;11.558;2022-12-10T08:16:30;7.10;45.00
30288;DHT22;17103;48.316;11.558;2022-12-10T08:18:58;7.10;45.20
30288;DHT22;17103;48.316;11.558;2022-12-10T08:21:27;7.10;45.40
30288;DHT22;17103;48.316;11.558;2022-12-10T08:23:53;7.00;45.30
30288;DHT22;17103;48.316;11.558;2022-12-10T08:26:21;7.00;45.50
30288;DHT22;17103;48.316;11.558;2022-12-10T08:28:49;6.90;45.60
30288;DHT22;17103;48.316;11.558;2022-12-10T08:31:16;6.90;45.70
30288;DHT22;17103;48.316;11.558;2022-12-10T08:33:42;6.80;45.80
30288;DHT22;17103;48.316;11.558;2022-12-10T08:36:11;6.80;45.90
30288;DHT22;17103;48.316;11.558;2022-12-10T08:38:38;6.80;46.00
30288;DHT22;17103;48.316;11.558;2022-12-10T08:41:12;6.80;46.10
30288;DHT22;17103;48.316;11.558;2022-12-10T08:43:39;7.10;46.40
30288;DHT22;17103;48.316;11.558;2022-12-10T08:46:05;6.70;46.10
30288;DHT22;17103;48.316;11.558;2022-12-10T08:48:31;6.70;46.20
30288;DHT22;17103;48.316;11.558;2022-12-10T08:50:57;6.70;46.20
30288;DHT22;17103;48.316;11.558;2022-12-10T08:53:23;6.60;46.10
30288;DHT22;17103;48.316;11.558;2022-12-10T08:55:52;6.50;46.30
30288;DHT22;17103;48.316;11.558;2022-12-10T08:58:19;6.50;46.40
30288;DHT22;17103;48.316;11.558;2022-12-10T09:00:45;6.40;46.30
30288;DHT22;17103;48.316;11.558;2022-12-10T09:03:10;6.40;46.50
30288;DHT22;17103;48.316;11.558;2022-12-10T09:05:36;6.30;47.20
30288;DHT22;17103;48.316;11.558;2022-12-10T09:08:03;6.30;46.70
30288;DHT22;17103;48.316;11.558;2022-12-10T09:10:29;6.30;46.70
30288;DHT22;17103;48.316;11.558;2022-12-10T09:12:55;6.20;46.70
30288;DHT22;17103;48.316;11.558;2022-12-10T09:15:21;6.20;46.80
30288;DHT22;17103;48.316;11.558;2022-12-10T09:17:48;6.20;46.90
30288;DHT22;17103;48.316;11.558;2022-12-10T09:20:14;6.20;47.00
30288;DHT22;17103;48.316;11.558;2022-12-10T09:22:40;6.20;47.10
30288;DHT22;17103;48.316;11.558;2022-12-10T09:25:07;6.30;47.20
30288;DHT22;17103;48.316;11.558;2022-12-10T09:27:35;6.20;47.10
30288;DHT22;17103;48.316;11.558;2022-12-10T09:30:04;6.20;47.10
30288;DHT22;17103;48.316;11.558;2022-12-10T09:32:30;6.20;47.10
30288;DHT22;17103;48.316;11.558;2022-12-10T09:34:56;6.20;47.10
30288;DHT22;17103;48.316;11.558;2022-12-10T09:37:22;6.20;47.20
30288;DHT22;17103;48.316;11.558;2022-12-10T09:39:48;6.10;47.00
30288;DHT22;17103;48.316;11.558;2022-12-10T09:52:49;6.10;47.30
30288;DHT22;17103;48.316;11.558;2022-12-10T09:55:20;6.10;47.30
30288;DHT22;17103;48.316;11.558;2022-12-10T09:57:51;6.10;47.40
30288;DHT22;17103;48.316;11.558;2022-12-10T10:02:44;6.10;47.50
30288;DHT22;17103;48.316;11.558;2022-12-10T10:05:24;6.10;47.30
30288;DHT22;17103;48.316;11.558;2022-12-10T10:08:03;6.10;47.40
30288;DHT22;17103;48.316;11.558;2022-12-10T10:10:37;6.10;47.40
30288;DHT22;17103;48.316;11.558;2022-12-10T10:13:36;6.10;47.40
30288;DHT22;17103;48.316;11.558;2022-12-10T10:18:54;6.10;47.60
30288;DHT22;17103;48.316;11.558;2022-12-10T10:21:23;6.10;47.60
30288;DHT22;17103;48.316;11.558;2022-12-10T10:23:49;6.10;47.60
30288;DHT22;17103;48.316;11.558;2022-12-10T10:26:15;6.20;47.70
30288;DHT22;17103;48.316;11.558;2022-12-10T10:28:41;6.20;47.60
30288;DHT22;17103;48.316;11.558;2022-12-10T10:31:22;6.20;47.60
30288;DHT22;17103;48.316;11.558;2022-12-10T10:34:33;6.20;47.60
30288;DHT22;17103;48.316;11.558;2022-12-10T10:36:43;6.20;47.60
30288;DHT22;17103;48.316;11.558;2022-12-10T10:41:42;6.30;47.70
30288;DHT22;17103;48.316;11.558;2022-12-10T10:44:15;6.30;47.70
30288;DHT22;17103;48.316;11.558;2022-12-10T10:46:44;6.30;47.70
30288;DHT22;17103;48.316;11.558;2022-12-10T10:49:30;6.30;47.60
30288;DHT22;17103;48.316;11.558;2022-12-10T10:52:04;6.30;47.70
30288;DHT22;17103;48.316;11.558;2022-12-10T10:54:41;6.30;47.70
30288;DHT22;17103;48.316;11.558;2022-12-10T11:00:03;6.30;47.80
30288;DHT22;17103;48.316;11.558;2022-12-10T11:02:34;6.30;47.90
30288;DHT22;17103;48.316;11.558;2022-12-10T11:05:21;6.40;48.00
30288;DHT22;17103;48.316;11.558;2022-12-10T11:08:00;6.40;48.10
30288;DHT22;17103;48.316;11.558;2022-12-10T11:10:27;6.40;48.00
30288;DHT22;17103;48.316;11.558;2022-12-10T11:12:59;6.40;47.80
30288;DHT22;17103;48.316;11.558;2022-12-10T11:15:37;6.50;47.80
30288;DHT22;17103;48.316;11.558;2022-12-10T11:23:42;6.50;47.60
30288;DHT22;17103;48.316;11.558;2022-12-10T11:26:26;6.40;47.50
30288;DHT22;17103;48.316;11.558;2022-12-10T11:29:12;6.40;47.60
30288;DHT22;17103;48.316;11.558;2022-12-10T11:37:26;6.30;47.70
30288;DHT22;17103;48.316;11.558;2022-12-10T11:57:20;6.30;48.20
30288;DHT22;17103;48.316;11.558;2022-12-10T12:05:22;6.20;48.30
30288;DHT22;17103;48.316;11.558;2022-12-10T12:08:12;6.20;48.40
30288;DHT22;17103;48.316;11.558;2022-12-10T12:11:06;5.70;48.20
30288;DHT22;17103;48.316;11.558;2022-12-10T12:13:47;6.20;48.50
30288;DHT22;17103;48.316;11.558;2022-12-10T12:16:30;6.20;48.50
30288;DHT22;17103;48.316;11.558;2022-12-10T12:19:05;6.20;48.80
30288;DHT22;17103;48.316;11.558;2022-12-10T12:21:35;6.20;48.80
30288;DHT22;17103;48.316;11.558;2022-12-10T12:24:22;6.20;48.80
30288;DHT22;17103;48.316;11.558;2022-12-10T12:27:43;6.20;49.00
30288;DHT22;17103;48.316;11.558;2022-12-10T12:32:40;6.10;49.00
30288;DHT22;17103;48.316;11.558;2022-12-10T12:37:59;6.00;49.00
30288;DHT22;17103;48.316;11.558;2022-12-10T12:46:12;6.00;49.20
30288;DHT22;17103;48.316;11.558;2022-12-10T12:48:53;6.00;49.20
30288;DHT22;17103;48.316;11.558;2022-12-10T12:51:38;5.90;49.30
30288;DHT22;17103;48.316;11.558;2022-12-10T12:54:05;5.90;49.30
30288;DHT22;17103;48.316;11.558;2022-12-10T13:01:41;5.90;49.40
30288;DHT22;17103;48.316;11.558;2022-12-10T13:04:09;5.90;49.70
30288;DHT22;17103;48.316;11.558;2022-12-10T13:06:37;5.80;49.70
30288;DHT22;17103;48.316;11.558;2022-12-10T13:17:36;5.70;49.70
30288;DHT22;17103;48.316;11.558;2022-12-10T13:20:28;5.70;49.70
30288;DHT22;17103;48.316;11.558;2022-12-10T13:23:00;5.70;49.90
30288;DHT22;17103;48.316;11.558;2022-12-10T13:25:56;6.40;50.50
30288;DHT22;17103;48.316;11.558;2022-12-10T13:31:20;5.60;50.10
30288;DHT22;17103;48.316;11.558;2022-12-10T13:34:19;5.60;50.30
30288;DHT22;17103;48.316;11.558;2022-12-10T13:40:12;5.60;50.20
30288;DHT22;17103;48.316;11.558;2022-12-10T13:42:47;5.60;50.30
30288;DHT22;17103;48.316;11.558;2022-12-10T13:45:39;5.50;50.20
30288;DHT22;17103;48.316;11.558;2022-12-10T13:48:29;5.50;50.10
30288;DHT22;17103;48.316;11.558;2022-12-10T13:51:14;5.50;50.40
30288;DHT22;17103;48.316;11.558;2022-12-10T13:54:01;5.60;50.70
30288;DHT22;17103;48.316;11.558;2022-12-10T13:56:42;5.40;50.50
30288;DHT22;17103;48.316;11.558;2022-12-10T14:02:17;5.40;50.80
30288;DHT22;17103;48.316;11.558;2022-12-10T14:05:07;5.30;50.80
30288;DHT22;17103;48.316;11.558;2022-12-10T14:07:38;5.30;50.90
30288;DHT22;17103;48.316;11.558;2022-12-10T14:10:10;5.30;50.90
30288;DHT22;17103;48.316;11.558;2022-12-10T14:12:40;5.30;51.10
30288;DHT22;17103;48.316;11.558;2022-12-10T14:15:14;5.30;51.10
30288;DHT22;17103;48.316;11.558;2022-12-10T14:17:43;4.60;50.70
30288;DHT22;17103;48.316;11.558;2022-12-10T14:20:21;5.30;51.30
30288;DHT22;17103;48.316;11.558;2022-12-10T14:22:53;5.30;51.60
30288;DHT22;17103;48.316;11.558;2022-12-10T14:25:22;5.30;51.50
30288;DHT22;17103;48.316;11.558;2022-12-10T14:27:52;5.30;51.60
30288;DHT22;17103;48.316;11.558;2022-12-10T14:30:21;5.20;51.50
30288;DHT22;17103;48.316;11.558;2022-12-10T14:32:47;5.20;51.50
30288;DHT22;17103;48.316;11.558;2022-12-10T14:35:18;5.20;51.60
30288;DHT22;17103;48.316;11.558;2022-12-10T14:37:46;5.20;51.60
30288;DHT22;17103;48.316;11.558;2022-12-10T14:40:21;5.20;51.60
30288;DHT22;17103;48.316;11.558;2022-12-10T14:42:49;5.20;51.90
30288;DHT22;17103;48.316;11.558;2022-12-10T14:45:15;5.20;51.80
30288;DHT22;17103;48.316;11.558;2022-12-10T14:47:41;5.10;51.70
30288;DHT22;17103;48.316;11.558;2022-12-10T14:50:12;5.10;51.70
30288;DHT22;17103;48.316;11.558;2022-12-10T14:52:50;5.10;51.90
30288;DHT22;17103;48.316;11.558;2022-12-10T14:55:19;5.10;51.90
30288;DHT22;17103;48.316;11.558;2022-12-10T14:57:59;5.10;51.90
30288;DHT22;17103;48.316;11.558;2022-12-10T15:00:25;5.10;52.00
30288;DHT22;17103;48.316;11.558;2022-12-10T15:02:58;5.10;51.90
30288;DHT22;17103;48.316;11.558;2022-12-10T15:05:28;5.10;52.10
30288;DHT22;17103;48.316;11.558;2022-12-10T15:08:02;5.10;52.10
30288;DHT22;17103;48.316;11.558;2022-12-10T15:10:37;5.10;52.10
30288;DHT22;17103;48.316;11.558;2022-12-10T15:13:05;5.70;52.70
30288;DHT22;17103;48.316;11.558;2022-12-10T15:15:37;5.10;52.10
30288;DHT22;17103;48.316;11.558;2022-12-10T15:20:47;5.10;52.60
30288;DHT22;17103;48.316;11.558;2022-12-10T15:28:34;5.00;52.30
30288;DHT22;17103;48.316;11.558;2022-12-10T15:33:56;4.90;52.40
30288;DHT22;17103;48.316;11.558;2022-12-10T15:36:38;4.80;52.40
30288;DHT22;17103;48.316;11.558;2022-12-10T15:44:30;4.70;52.40
30288;DHT22;17103;48.316;11.558;2022-12-10T15:47:18;4.60;52.60
30288;DHT22;17103;48.316;11.558;2022-12-10T15:49:46;4.60;52.60
30288;DHT22;17103;48.316;11.558;2022-12-10T15:52:13;5.50;53.30
30288;DHT22;17103;48.316;11.558;2022-12-10T15:54:41;4.50;52.30
30288;DHT22;17103;48.316;11.558;2022-12-10T15:57:29;4.50;52.50
30288;DHT22;17103;48.316;11.558;2022-12-10T15:59:58;4.40;52.50
30288;DHT22;17103;48.316;11.558;2022-12-10T16:04:53;4.50;52.60
30288;DHT22;17103;48.316;11.558;2022-12-10T16:07:19;4.40;52.60
30288;DHT22;17103;48.316;11.558;2022-12-10T16:09:46;4.40;52.60
30288;DHT22;17103;48.316;11.558;2022-12-10T16:12:13;4.40;52.60
30288;DHT22;17103;48.316;11.558;2022-12-10T16:14:48;4.30;52.50
30288;DHT22;17103;48.316;11.558;2022-12-10T16:17:15;4.30;52.40
30288;DHT22;17103;48.316;11.558;2022-12-10T16:19:41;4.30;52.40
30288;DHT22;17103;48.316;11.558;2022-12-10T16:22:06;4.30;52.30
30288;DHT22;17103;48.316;11.558;2022-12-10T16:24:32;4.30;52.20
30288;DHT22;17103;48.316;11.558;2022-12-10T16:26:58;4.30;52.20
30288;DHT22;17103;48.316;11.558;2022-12-10T16:29:23;4.30;52.00
30288;DHT22;17103;48.316;11.558;2022-12-10T16:31:49;4.30;51.80
30288;DHT22;17103;48.316;11.558;2022-12-10T16:34:15;4.20;51.90
30288;DHT22;17103;48.316;11.558;2022-12-10T16:36:41;4.20;51.80
30288;DHT22;17103;48.316;11.558;2022-12-10T16:39:06;4.20;51.90
30288;DHT22;17103;48.316;11.558;2022-12-10T16:41:32;4.20;51.90
30288;DHT22;17103;48.316;11.558;2022-12-10T16:43:58;4.20;51.90
30288;DHT22;17103;48.316;11.558;2022-12-10T16:46:24;4.20;51.90
30288;DHT22;17103;48.316;11.558;2022-12-10T16:48:49;4.20;52.00
30288;DHT22;17103;48.316;11.558;2022-12-10T16:51:23;4.20;52.00
30288;DHT22;17103;48.316;11.558;2022-12-10T16:53:51;4.20;52.10
30288;DHT22;17103;48.316;11.558;2022-12-10T16:56:17;4.20;52.00
30288;DHT22;17103;48.316;11.558;2022-12-10T16:58:44;4.20;52.00
30288;DHT22;17103;48.316;11.558;2022-12-10T17:01:18;4.20;52.10
30288;DHT22;17103;48.316;11.558;2022-12-10T17:03:44;4.20;52.00
30288;DHT22;17103;48.316;11.558;2022-12-10T17:06:11;4.40;52.10
30288;DHT22;17103;48.316;11.558;2022-12-10T17:08:37;4.20;51.90
30288;DHT22;17103;48.316;11.558;2022-12-10T17:11:35;4.20;52.00
30288;DHT22;17103;48.316;11.558;2022-12-10T17:14:34;4.10;52.00
30288;DHT22;17103;48.316;11.558;2022-12-10T17:17:02;4.10;52.00
30288;DHT22;17103;48.316;11.558;2022-12-10T17:19:31;4.10;52.10
30288;DHT22;17103;48.316;11.558;2022-12-10T17:21:58;4.10;52.30
30288;DHT22;17103;48.316;11.558;2022-12-10T17:24:23;4.10;52.30
30288;DHT22;17103;48.316;11.558;2022-12-10T17:26:51;4.10;52.30
30288;DHT22;17103;48.316;11.558;2022-12-10T17:29:44;4.10;52.40
30288;DHT22;17103;48.316;11.558;2022-12-10T17:32:15;4.00;52.50
30288;DHT22;17103;48.316;11.558;2022-12-10T17:34:41;4.00;52.50
30288;DHT22;17103;48.316;11.558;2022-12-10T17:37:12;4.50;52.70
30288;DHT22;17103;48.316;11.558;2022-12-10T17:39:38;4.00;52.40
30288;DHT22;17103;48.316;11.558;2022-12-10T17:42:04;4.00;52.50
30288;DHT22;17103;48.316;11.558;2022-12-10T17:44:29;4.00;52.60
30288;DHT22;17103;48.316;11.558;2022-12-10T17:46:55;4.00;52.60
30288;DHT22;17103;48.316;11.558;2022-12-10T17:49:20;4.20;52.70
30288;DHT22;17103;48.316;11.558;2022-12-10T17:51:46;4.00;52.60
30288;DHT22;17103;48.316;11.558;2022-12-10T17:54:12;4.00;52.70
30288;DHT22;17103;48.316;11.558;2022-12-10T17:56:41;4.00;52.70